sensor_id;sensor_type;location;lat;lon;timestamp;P1;durP1;ratioP1;P2;durP2;ratioP2
4521;SDS011;2273;48.464;11.926;2022-11-20T00:01:40;22.07;;;11.30;;
4521;SDS011;2273;48.464;11.926;2022-11-20T00:04:05;24.90;;;12.63;;
4521;SDS011;2273;48.464;11.926;2022-11-20T00:06:31;16.57;;;10.53;;
4521;SDS011;2273;48.464;11.926;2022-11-20T00:08:57;13.87;;;8.37;;
4521;SDS011;2273;48.464;11.926;2022-11-20T00:11:25;17.80;;;8.43;;
4521;SDS011;2273;48.464;11.926;2022-11-20T00:13:52;11.70;;;8.00;;
4521;SDS011;2273;48.464;11.926;2022-11-20T00:16:20;16.37;;;7.50;;
4521;SDS011;2273;48.464;11.926;2022-11-20T00:18:47;10.43;;;7.20;;
4521;SDS011;2273;48.464;11.926;2022-11-20T00:21:14;12.40;;;7.43;;
4521;SDS011;2273;48.464;11.926;2022-11-20T00:23:41;13.33;;;7.70;;
4521;SDS011;2273;48.464;11.926;2022-11-20T00:26:09;13.00;;;7.03;;
4521;SDS011;2273;48.464;11.926;2022-11-20T00:28:36;13.70;;;7.40;;
4521;SDS011;2273;48.464;11.926;2022-11-20T00:31:05;9.17;;;6.63;;
4521;SDS011;2273;48.464;11.926;2022-11-20T00:33:34;8.70;;;5.70;;
4521;SDS011;2273;48.464;11.926;2022-11-20T00:36:00;12.17;;;6.53;;
4521;SDS011;2273;48.464;11.926;2022-11-20T00:38:27;8.63;;;5.80;;
4521;SDS011;2273;48.464;11.926;2022-11-20T00:40:56;8.63;;;5.90;;
4521;SDS011;2273;48.464;11.926;2022-11-20T00:43:25;9.27;;;5.60;;
4521;SDS011;2273;48.464;11.926;2022-11-20T00:45:55;10.10;;;5.70;;
4521;SDS011;2273;48.464;11.926;2022-11-20T00:48:22;12.37;;;5.30;;
4521;SDS011;2273;48.464;11.926;2022-11-20T00:50:47;10.43;;;5.43;;
4521;SDS011;2273;48.464;11.926;2022-11-20T00:53:12;6.30;;;4.77;;
4521;SDS011;2273;48.464;11.926;2022-11-20T00:55:38;7.33;;;4.47;;
4521;SDS011;2273;48.464;11.926;2022-11-20T00:58:03;6.33;;;4.53;;
4521;SDS011;2273;48.464;11.926;2022-11-20T01:00:29;6.00;;;4.60;;
4521;SDS011;2273;48.464;11.926;2022-11-20T01:02:55;6.47;;;4.70;;
4521;SDS011;2273;48.464;11.926;2022-11-20T01:05:20;8.80;;;4.27;;
4521;SDS011;2273;48.464;11.926;2022-11-20T01:07:46;6.17;;;4.37;;
4521;SDS011;2273;48.464;11.926;2022-11-20T01:10:11;5.17;;;4.00;;
4521;SDS011;2273;48.464;11.926;2022-11-20T01:12:37;7.23;;;4.60;;
4521;SDS011;2273;48.464;11.926;2022-11-20T01:15:02;6.97;;;4.50;;
4521;SDS011;2273;48.464;11.926;2022-11-20T01:17:28;7.37;;;4.50;;
4521;SDS011;2273;48.464;11.926;2022-11-20T01:19:53;7.00;;;5.00;;
4521;SDS011;2273;48.464;11.926;2022-11-20T01:22:18;8.33;;;4.30;;
4521;SDS011;2273;48.464;11.926;2022-11-20T01:24:44;8.33;;;4.97;;
4521;SDS011;2273;48.464;11.926;2022-11-20T01:27:09;7.23;;;5.20;;
4521;SDS011;2273;48.464;11.926;2022-11-20T01:29:35;7.60;;;4.60;;
4521;SDS011;2273;48.464;11.926;2022-11-20T01:32:00;8.63;;;5.07;;
4521;SDS011;2273;48.464;11.926;2022-11-20T01:34:26;7.10;;;4.80;;
4521;SDS011;2273;48.464;11.926;2022-11-20T01:36:52;7.20;;;5.20;;
4521;SDS011;2273;48.464;11.926;2022-11-20T01:39:19;8.17;;;5.40;;
4521;SDS011;2273;48.464;11.926;2022-11-20T01:41:47;11.10;;;6.10;;
4521;SDS011;2273;48.464;11.926;2022-11-20T01:47:21;11.40;;;5.33;;
4521;SDS011;2273;48.464;11.926;2022-11-20T01:49:52;9.40;;;5.80;;
4521;SDS011;2273;48.464;11.926;2022-11-20T01:52:25;8.53;;;6.10;;
4521;SDS011;2273;48.464;11.926;2022-11-20T01:54:56;10.00;;;5.73;;
4521;SDS011;2273;48.464;11.926;2022-11-20T01:57:25;10.83;;;6.60;;
4521;SDS011;2273;48.464;11.926;2022-11-20T02:00:00;8.50;;;6.00;;
4521;SDS011;2273;48.464;11.926;2022-11-20T02:02:38;10.20;;;6.30;;
4521;SDS011;2273;48.464;11.926;2022-11-20T02:05:09;8.73;;;6.10;;
4521;SDS011;2273;48.464;11.926;2022-11-20T02:07:39;10.33;;;6.70;;
4521;SDS011;2273;48.464;11.926;2022-11-20T02:10:05;7.60;;;5.87;;
4521;SDS011;2273;48.464;11.926;2022-11-20T02:12:31;9.90;;;7.13;;
4521;SDS011;2273;48.464;11.926;2022-11-20T02:15:15;10.73;;;6.20;;
4521;SDS011;2273;48.464;11.926;2022-11-20T02:17:40;11.23;;;7.70;;
4521;SDS011;2273;48.464;11.926;2022-11-20T02:20:06;10.00;;;6.70;;
4521;SDS011;2273;48.464;11.926;2022-11-20T02:22:34;9.37;;;6.43;;
4521;SDS011;2273;48.464;11.926;2022-11-20T02:25:12;10.33;;;6.90;;
4521;SDS011;2273;48.464;11.926;2022-11-20T02:27:38;9.67;;;7.23;;
4521;SDS011;2273;48.464;11.926;2022-11-20T02:30:05;10.43;;;7.40;;
4521;SDS011;2273;48.464;11.926;2022-11-20T02:32:36;13.03;;;7.17;;
4521;SDS011;2273;48.464;11.926;2022-11-20T02:35:09;11.60;;;7.10;;
4521;SDS011;2273;48.464;11.926;2022-11-20T02:37:55;15.00;;;7.20;;
4521;SDS011;2273;48.464;11.926;2022-11-20T02:40:22;11.23;;;6.90;;
4521;SDS011;2273;48.464;11.926;2022-11-20T02:42:51;9.73;;;6.50;;
4521;SDS011;2273;48.464;11.926;2022-11-20T02:45:17;10.27;;;6.43;;
4521;SDS011;2273;48.464;11.926;2022-11-20T02:47:42;10.77;;;6.63;;
4521;SDS011;2273;48.464;11.926;2022-11-20T02:50:07;9.40;;;6.50;;
4521;SDS011;2273;48.464;11.926;2022-11-20T02:52:33;10.17;;;6.87;;
4521;SDS011;2273;48.464;11.926;2022-11-20T02:54:58;10.37;;;7.00;;
4521;SDS011;2273;48.464;11.926;2022-11-20T02:57:24;11.60;;;6.80;;
4521;SDS011;2273;48.464;11.926;2022-11-20T02:59:49;9.27;;;6.23;;
4521;SDS011;2273;48.464;11.926;2022-11-20T03:02:15;14.50;;;6.30;;
4521;SDS011;2273;48.464;11.926;2022-11-20T03:04:40;9.93;;;6.10;;
4521;SDS011;2273;48.464;11.926;2022-11-20T03:07:05;10.57;;;7.23;;
4521;SDS011;2273;48.464;11.926;2022-11-20T03:09:32;9.93;;;6.53;;
4521;SDS011;2273;48.464;11.926;2022-11-20T03:11:58;9.47;;;6.30;;
4521;SDS011;2273;48.464;11.926;2022-11-20T03:14:23;8.40;;;6.33;;
4521;SDS011;2273;48.464;11.926;2022-11-20T03:16:48;10.00;;;6.40;;
4521;SDS011;2273;48.464;11.926;2022-11-20T03:19:14;10.63;;;6.60;;
4521;SDS011;2273;48.464;11.926;2022-11-20T03:21:39;8.07;;;6.10;;
4521;SDS011;2273;48.464;11.926;2022-11-20T03:24:05;11.03;;;6.33;;
4521;SDS011;2273;48.464;11.926;2022-11-20T03:26:31;10.83;;;6.50;;
4521;SDS011;2273;48.464;11.926;2022-11-20T03:28:57;10.97;;;7.20;;
4521;SDS011;2273;48.464;11.926;2022-11-20T03:31:28;11.57;;;7.57;;
4521;SDS011;2273;48.464;11.926;2022-11-20T03:34:01;8.77;;;5.70;;
4521;SDS011;2273;48.464;11.926;2022-11-20T03:36:28;9.05;;;6.10;;
4521;SDS011;2273;48.464;11.926;2022-11-20T03:38:54;8.57;;;6.47;;
4521;SDS011;2273;48.464;11.926;2022-11-20T03:41:21;9.40;;;6.33;;
4521;SDS011;2273;48.464;11.926;2022-11-20T03:43:48;7.40;;;5.57;;
4521;SDS011;2273;48.464;11.926;2022-11-20T03:46:14;8.03;;;6.20;;
4521;SDS011;2273;48.464;11.926;2022-11-20T03:48:39;9.00;;;6.17;;
4521;SDS011;2273;48.464;11.926;2022-11-20T03:51:12;10.00;;;6.47;;
4521;SDS011;2273;48.464;11.926;2022-11-20T03:53:45;8.20;;;6.03;;
4521;SDS011;2273;48.464;11.926;2022-11-20T03:56:12;12.03;;;6.10;;
4521;SDS011;2273;48.464;11.926;2022-11-20T03:58:39;8.63;;;6.17;;
4521;SDS011;2273;48.464;11.926;2022-11-20T04:01:09;10.67;;;6.60;;
4521;SDS011;2273;48.464;11.926;2022-11-20T04:03:35;11.63;;;5.87;;
4521;SDS011;2273;48.464;11.926;2022-11-20T04:06:02;7.60;;;5.97;;
4521;SDS011;2273;48.464;11.926;2022-11-20T04:08:30;9.03;;;6.40;;
4521;SDS011;2273;48.464;11.926;2022-11-20T04:10:55;9.00;;;6.30;;
4521;SDS011;2273;48.464;11.926;2022-11-20T04:13:21;10.27;;;6.27;;
4521;SDS011;2273;48.464;11.926;2022-11-20T04:15:46;9.00;;;6.37;;
4521;SDS011;2273;48.464;11.926;2022-11-20T04:18:12;11.67;;;6.60;;
4521;SDS011;2273;48.464;11.926;2022-11-20T04:20:37;8.80;;;6.13;;
4521;SDS011;2273;48.464;11.926;2022-11-20T04:23:02;10.60;;;5.80;;
4521;SDS011;2273;48.464;11.926;2022-11-20T04:25:28;10.60;;;5.73;;
4521;SDS011;2273;48.464;11.926;2022-11-20T04:27:53;8.83;;;6.23;;
4521;SDS011;2273;48.464;11.926;2022-11-20T04:30:19;10.67;;;6.30;;
4521;SDS011;2273;48.464;11.926;2022-11-20T04:32:45;9.93;;;5.80;;
4521;SDS011;2273;48.464;11.926;2022-11-20T04:35:10;9.40;;;5.50;;
4521;SDS011;2273;48.464;11.926;2022-11-20T04:37:35;8.80;;;6.10;;
4521;SDS011;2273;48.464;11.926;2022-11-20T04:40:01;9.40;;;6.70;;
4521;SDS011;2273;48.464;11.926;2022-11-20T04:42:26;7.97;;;5.87;;
4521;SDS011;2273;48.464;11.926;2022-11-20T04:44:55;8.10;;;5.33;;
4521;SDS011;2273;48.464;11.926;2022-11-20T04:47:21;7.73;;;5.70;;
4521;SDS011;2273;48.464;11.926;2022-11-20T04:49:46;8.60;;;6.33;;
4521;SDS011;2273;48.464;11.926;2022-11-20T04:52:12;9.30;;;6.40;;
4521;SDS011;2273;48.464;11.926;2022-11-20T04:54:37;8.67;;;6.20;;
4521;SDS011;2273;48.464;11.926;2022-11-20T04:57:03;7.80;;;6.13;;
4521;SDS011;2273;48.464;11.926;2022-11-20T04:59:28;8.60;;;5.97;;
4521;SDS011;2273;48.464;11.926;2022-11-20T05:01:54;8.60;;;6.00;;
4521;SDS011;2273;48.464;11.926;2022-11-20T05:04:19;12.03;;;8.10;;
4521;SDS011;2273;48.464;11.926;2022-11-20T05:06:44;8.00;;;6.13;;
4521;SDS011;2273;48.464;11.926;2022-11-20T05:09:11;8.10;;;5.80;;
4521;SDS011;2273;48.464;11.926;2022-11-20T05:11:37;10.37;;;6.10;;
4521;SDS011;2273;48.464;11.926;2022-11-20T05:14:02;9.47;;;5.73;;
4521;SDS011;2273;48.464;11.926;2022-11-20T05:16:28;7.03;;;5.57;;
4521;SDS011;2273;48.464;11.926;2022-11-20T05:18:53;8.50;;;6.23;;
4521;SDS011;2273;48.464;11.926;2022-11-20T05:21:20;7.67;;;5.80;;
4521;SDS011;2273;48.464;11.926;2022-11-20T05:23:45;8.90;;;6.07;;
4521;SDS011;2273;48.464;11.926;2022-11-20T05:26:13;9.32;;;5.95;;
4521;SDS011;2273;48.464;11.926;2022-11-20T05:28:46;8.10;;;5.10;;
4521;SDS011;2273;48.464;11.926;2022-11-20T05:31:13;10.20;;;6.00;;
4521;SDS011;2273;48.464;11.926;2022-11-20T05:33:40;9.13;;;5.30;;
4521;SDS011;2273;48.464;11.926;2022-11-20T05:36:06;9.10;;;5.10;;
4521;SDS011;2273;48.464;11.926;2022-11-20T05:38:32;9.07;;;5.90;;
4521;SDS011;2273;48.464;11.926;2022-11-20T05:41:08;8.70;;;5.90;;
4521;SDS011;2273;48.464;11.926;2022-11-20T05:43:35;8.57;;;5.50;;
4521;SDS011;2273;48.464;11.926;2022-11-20T05:46:02;8.07;;;5.03;;
4521;SDS011;2273;48.464;11.926;2022-11-20T05:48:29;6.63;;;4.70;;
4521;SDS011;2273;48.464;11.926;2022-11-20T05:50:56;7.30;;;4.87;;
4521;SDS011;2273;48.464;11.926;2022-11-20T05:53:23;6.57;;;5.17;;
4521;SDS011;2273;48.464;11.926;2022-11-20T05:55:55;8.90;;;5.10;;
4521;SDS011;2273;48.464;11.926;2022-11-20T05:58:31;8.75;;;5.55;;
4521;SDS011;2273;48.464;11.926;2022-11-20T06:01:30;7.70;;;5.60;;
4521;SDS011;2273;48.464;11.926;2022-11-20T06:03:49;8.27;;;5.50;;
4521;SDS011;2273;48.464;11.926;2022-11-20T06:06:16;9.47;;;6.13;;
4521;SDS011;2273;48.464;11.926;2022-11-20T06:08:42;6.40;;;4.83;;
4521;SDS011;2273;48.464;11.926;2022-11-20T06:11:09;8.33;;;5.47;;
4521;SDS011;2273;48.464;11.926;2022-11-20T06:13:35;7.07;;;5.63;;
4521;SDS011;2273;48.464;11.926;2022-11-20T06:16:01;8.40;;;5.60;;
4521;SDS011;2273;48.464;11.926;2022-11-20T06:18:27;6.80;;;4.90;;
4521;SDS011;2273;48.464;11.926;2022-11-20T06:21:03;8.70;;;5.70;;
4521;SDS011;2273;48.464;11.926;2022-11-20T06:23:37;7.50;;;4.73;;
4521;SDS011;2273;48.464;11.926;2022-11-20T06:26:03;7.90;;;4.60;;
4521;SDS011;2273;48.464;11.926;2022-11-20T06:28:28;7.53;;;5.60;;
4521;SDS011;2273;48.464;11.926;2022-11-20T06:30:54;10.13;;;5.30;;
4521;SDS011;2273;48.464;11.926;2022-11-20T06:33:19;9.57;;;5.87;;
4521;SDS011;2273;48.464;11.926;2022-11-20T06:35:45;7.03;;;5.40;;
4521;SDS011;2273;48.464;11.926;2022-11-20T06:38:10;8.00;;;5.50;;
4521;SDS011;2273;48.464;11.926;2022-11-20T06:40:35;6.93;;;5.27;;
4521;SDS011;2273;48.464;11.926;2022-11-20T06:43:01;7.77;;;5.50;;
4521;SDS011;2273;48.464;11.926;2022-11-20T06:45:26;7.80;;;5.40;;
4521;SDS011;2273;48.464;11.926;2022-11-20T06:47:53;6.00;;;4.83;;
4521;SDS011;2273;48.464;11.926;2022-11-20T06:50:18;7.87;;;5.53;;
4521;SDS011;2273;48.464;11.926;2022-11-20T06:52:44;7.80;;;5.00;;
4521;SDS011;2273;48.464;11.926;2022-11-20T06:55:09;6.20;;;5.10;;
4521;SDS011;2273;48.464;11.926;2022-11-20T06:57:34;9.80;;;5.63;;
4521;SDS011;2273;48.464;11.926;2022-11-20T07:00:00;6.87;;;5.40;;
4521;SDS011;2273;48.464;11.926;2022-11-20T07:02:26;11.40;;;5.80;;
4521;SDS011;2273;48.464;11.926;2022-11-20T07:04:51;10.13;;;5.43;;
4521;SDS011;2273;48.464;11.926;2022-11-20T07:07:16;6.30;;;4.93;;
4521;SDS011;2273;48.464;11.926;2022-11-20T07:09:42;7.33;;;5.40;;
4521;SDS011;2273;48.464;11.926;2022-11-20T07:12:07;10.87;;;5.73;;
4521;SDS011;2273;48.464;11.926;2022-11-20T07:14:33;7.97;;;5.67;;
4521;SDS011;2273;48.464;11.926;2022-11-20T07:16:58;7.10;;;4.93;;
4521;SDS011;2273;48.464;11.926;2022-11-20T07:19:24;8.60;;;5.83;;
4521;SDS011;2273;48.464;11.926;2022-11-20T07:21:49;7.90;;;5.57;;
4521;SDS011;2273;48.464;11.926;2022-11-20T07:24:14;10.10;;;5.50;;
4521;SDS011;2273;48.464;11.926;2022-11-20T07:26:40;6.73;;;5.57;;
4521;SDS011;2273;48.464;11.926;2022-11-20T07:29:05;8.20;;;5.80;;
4521;SDS011;2273;48.464;11.926;2022-11-20T07:31:31;7.50;;;5.70;;
4521;SDS011;2273;48.464;11.926;2022-11-20T07:33:56;7.27;;;4.80;;
4521;SDS011;2273;48.464;11.926;2022-11-20T07:36:21;13.20;;;6.17;;
4521;SDS011;2273;48.464;11.926;2022-11-20T07:38:47;6.57;;;4.40;;
4521;SDS011;2273;48.464;11.926;2022-11-20T07:41:12;7.17;;;5.30;;
4521;SDS011;2273;48.464;11.926;2022-11-20T07:43:38;7.77;;;5.40;;
4521;SDS011;2273;48.464;11.926;2022-11-20T07:46:03;7.23;;;5.17;;
4521;SDS011;2273;48.464;11.926;2022-11-20T07:48:29;9.53;;;5.50;;
4521;SDS011;2273;48.464;11.926;2022-11-20T07:50:55;7.10;;;5.47;;
4521;SDS011;2273;48.464;11.926;2022-11-20T07:53:21;7.03;;;5.00;;
4521;SDS011;2273;48.464;11.926;2022-11-20T07:55:47;7.50;;;5.07;;
4521;SDS011;2273;48.464;11.926;2022-11-20T07:58:13;8.43;;;5.37;;
4521;SDS011;2273;48.464;11.926;2022-11-20T08:00:39;6.60;;;4.93;;
4521;SDS011;2273;48.464;11.926;2022-11-20T08:03:05;9.50;;;4.53;;
4521;SDS011;2273;48.464;11.926;2022-11-20T08:05:31;7.03;;;5.07;;
4521;SDS011;2273;48.464;11.926;2022-11-20T08:07:57;7.33;;;4.37;;
4521;SDS011;2273;48.464;11.926;2022-11-20T08:10:22;7.60;;;4.67;;
4521;SDS011;2273;48.464;11.926;2022-11-20T08:12:48;5.70;;;4.40;;
4521;SDS011;2273;48.464;11.926;2022-11-20T08:15:33;7.13;;;5.13;;
4521;SDS011;2273;48.464;11.926;2022-11-20T08:18:02;6.97;;;4.53;;
4521;SDS011;2273;48.464;11.926;2022-11-20T08:20:29;6.63;;;4.50;;
4521;SDS011;2273;48.464;11.926;2022-11-20T08:22:58;6.17;;;5.20;;
4521;SDS011;2273;48.464;11.926;2022-11-20T08:25:25;9.03;;;5.70;;
4521;SDS011;2273;48.464;11.926;2022-11-20T08:27:51;6.97;;;4.77;;
4521;SDS011;2273;48.464;11.926;2022-11-20T08:30:16;7.33;;;4.80;;
4521;SDS011;2273;48.464;11.926;2022-11-20T08:32:42;6.57;;;4.97;;
4521;SDS011;2273;48.464;11.926;2022-11-20T08:35:07;6.77;;;5.47;;
4521;SDS011;2273;48.464;11.926;2022-11-20T08:37:33;7.63;;;5.17;;
4521;SDS011;2273;48.464;11.926;2022-11-20T08:39:58;6.93;;;5.50;;
4521;SDS011;2273;48.464;11.926;2022-11-20T08:42:24;7.53;;;5.10;;
4521;SDS011;2273;48.464;11.926;2022-11-20T08:44:49;6.20;;;4.93;;
4521;SDS011;2273;48.464;11.926;2022-11-20T08:47:15;5.40;;;4.27;;
4521;SDS011;2273;48.464;11.926;2022-11-20T08:49:40;8.50;;;4.63;;
4521;SDS011;2273;48.464;11.926;2022-11-20T08:52:05;6.97;;;4.77;;
4521;SDS011;2273;48.464;11.926;2022-11-20T08:54:31;5.50;;;4.20;;
4521;SDS011;2273;48.464;11.926;2022-11-20T08:56:56;6.97;;;4.83;;
4521;SDS011;2273;48.464;11.926;2022-11-20T08:59:22;5.90;;;4.10;;
4521;SDS011;2273;48.464;11.926;2022-11-20T09:01:47;7.10;;;4.80;;
4521;SDS011;2273;48.464;11.926;2022-11-20T09:04:12;6.13;;;4.73;;
4521;SDS011;2273;48.464;11.926;2022-11-20T09:06:39;7.40;;;4.73;;
4521;SDS011;2273;48.464;11.926;2022-11-20T09:09:05;6.03;;;4.70;;
4521;SDS011;2273;48.464;11.926;2022-11-20T09:11:31;7.13;;;4.60;;
4521;SDS011;2273;48.464;11.926;2022-11-20T09:13:56;6.37;;;4.73;;
4521;SDS011;2273;48.464;11.926;2022-11-20T09:16:22;5.60;;;4.63;;
4521;SDS011;2273;48.464;11.926;2022-11-20T09:18:49;7.63;;;5.63;;
4521;SDS011;2273;48.464;11.926;2022-11-20T09:21:15;6.60;;;4.47;;
4521;SDS011;2273;48.464;11.926;2022-11-20T09:23:40;8.00;;;4.47;;
4521;SDS011;2273;48.464;11.926;2022-11-20T09:26:07;8.33;;;4.27;;
4521;SDS011;2273;48.464;11.926;2022-11-20T09:28:34;7.17;;;5.13;;
4521;SDS011;2273;48.464;11.926;2022-11-20T09:31:00;5.50;;;4.33;;
4521;SDS011;2273;48.464;11.926;2022-11-20T09:33:25;7.50;;;4.83;;
4521;SDS011;2273;48.464;11.926;2022-11-20T09:35:51;7.83;;;5.50;;
4521;SDS011;2273;48.464;11.926;2022-11-20T09:38:17;6.67;;;4.90;;
4521;SDS011;2273;48.464;11.926;2022-11-20T09:41:02;9.90;;;6.10;;
4521;SDS011;2273;48.464;11.926;2022-11-20T09:43:44;7.00;;;4.80;;
4521;SDS011;2273;48.464;11.926;2022-11-20T09:49:16;5.67;;;4.53;;
4521;SDS011;2273;48.464;11.926;2022-11-20T09:51:46;5.80;;;4.40;;
4521;SDS011;2273;48.464;11.926;2022-11-20T09:54:18;9.23;;;4.20;;
4521;SDS011;2273;48.464;11.926;2022-11-20T09:56:46;7.20;;;4.70;;
4521;SDS011;2273;48.464;11.926;2022-11-20T09:59:34;9.00;;;4.87;;
4521;SDS011;2273;48.464;11.926;2022-11-20T10:02:19;6.07;;;4.40;;
4521;SDS011;2273;48.464;11.926;2022-11-20T10:04:57;6.90;;;4.63;;
4521;SDS011;2273;48.464;11.926;2022-11-20T10:09:56;6.00;;;4.30;;
4521;SDS011;2273;48.464;11.926;2022-11-20T10:18:12;7.03;;;4.47;;
4521;SDS011;2273;48.464;11.926;2022-11-20T10:20:33;7.47;;;4.30;;
4521;SDS011;2273;48.464;11.926;2022-11-20T10:31:21;6.07;;;4.20;;
4521;SDS011;2273;48.464;11.926;2022-11-20T10:33:52;5.13;;;3.97;;
4521;SDS011;2273;48.464;11.926;2022-11-20T10:39:14;6.73;;;4.10;;
4521;SDS011;2273;48.464;11.926;2022-11-20T10:41:44;5.80;;;4.60;;
4521;SDS011;2273;48.464;11.926;2022-11-20T10:44:26;6.47;;;4.40;;
4521;SDS011;2273;48.464;11.926;2022-11-20T10:47:15;4.97;;;3.83;;
4521;SDS011;2273;48.464;11.926;2022-11-20T10:49:42;5.97;;;4.20;;
4521;SDS011;2273;48.464;11.926;2022-11-20T10:57:53;6.20;;;4.33;;
4521;SDS011;2273;48.464;11.926;2022-11-20T11:00:42;5.97;;;4.10;;
4521;SDS011;2273;48.464;11.926;2022-11-20T11:03:20;4.60;;;3.70;;
4521;SDS011;2273;48.464;11.926;2022-11-20T11:05:54;5.30;;;3.90;;
4521;SDS011;2273;48.464;11.926;2022-11-20T11:08:22;4.10;;;3.40;;
4521;SDS011;2273;48.464;11.926;2022-11-20T11:11:00;7.47;;;3.30;;
4521;SDS011;2273;48.464;11.926;2022-11-20T11:13:43;5.67;;;3.73;;
4521;SDS011;2273;48.464;11.926;2022-11-20T11:16:22;7.70;;;3.90;;
4521;SDS011;2273;48.464;11.926;2022-11-20T11:18:49;4.50;;;3.43;;
4521;SDS011;2273;48.464;11.926;2022-11-20T11:21:22;4.60;;;3.30;;
4521;SDS011;2273;48.464;11.926;2022-11-20T11:23:57;4.33;;;3.37;;
4521;SDS011;2273;48.464;11.926;2022-11-20T11:26:26;5.00;;;3.23;;
4521;SDS011;2273;48.464;11.926;2022-11-20T11:29:02;4.40;;;3.40;;
4521;SDS011;2273;48.464;11.926;2022-11-20T11:31:30;4.33;;;3.33;;
4521;SDS011;2273;48.464;11.926;2022-11-20T11:34:11;4.53;;;3.53;;
4521;SDS011;2273;48.464;11.926;2022-11-20T11:36:38;5.70;;;3.30;;
4521;SDS011;2273;48.464;11.926;2022-11-20T11:39:04;5.70;;;2.80;;
4521;SDS011;2273;48.464;11.926;2022-11-20T11:41:32;3.47;;;2.90;;
4521;SDS011;2273;48.464;11.926;2022-11-20T11:44:12;4.10;;;3.17;;
4521;SDS011;2273;48.464;11.926;2022-11-20T11:47:01;4.63;;;3.27;;
4521;SDS011;2273;48.464;11.926;2022-11-20T11:49:27;8.17;;;2.97;;
4521;SDS011;2273;48.464;11.926;2022-11-20T11:59:52;3.87;;;3.10;;
4521;SDS011;2273;48.464;11.926;2022-11-20T12:02:47;4.03;;;2.63;;
4521;SDS011;2273;48.464;11.926;2022-11-20T12:07:52;4.73;;;2.60;;
4521;SDS011;2273;48.464;11.926;2022-11-20T12:13:04;3.60;;;2.80;;
4521;SDS011;2273;48.464;11.926;2022-11-20T12:15:47;3.77;;;2.47;;
4521;SDS011;2273;48.464;11.926;2022-11-20T12:18:15;3.00;;;2.40;;
4521;SDS011;2273;48.464;11.926;2022-11-20T12:20:45;5.90;;;2.47;;
4521;SDS011;2273;48.464;11.926;2022-11-20T12:23:35;3.30;;;2.23;;
4521;SDS011;2273;48.464;11.926;2022-11-20T12:32:04;4.13;;;3.13;;
4521;SDS011;2273;48.464;11.926;2022-11-20T12:43:24;5.10;;;2.47;;
4521;SDS011;2273;48.464;11.926;2022-11-20T12:51:36;5.20;;;2.50;;
4521;SDS011;2273;48.464;11.926;2022-11-20T12:54:32;2.77;;;2.30;;
4521;SDS011;2273;48.464;11.926;2022-11-20T12:57:15;3.20;;;2.10;;
4521;SDS011;2273;48.464;11.926;2022-11-20T13:02:37;3.17;;;2.50;;
4521;SDS011;2273;48.464;11.926;2022-11-20T13:07:53;3.70;;;2.83;;
4521;SDS011;2273;48.464;11.926;2022-11-20T13:13:01;6.53;;;3.80;;
4521;SDS011;2273;48.464;11.926;2022-11-20T13:18:23;5.50;;;3.63;;
4521;SDS011;2273;48.464;11.926;2022-11-20T13:20:48;4.17;;;3.17;;
4521;SDS011;2273;48.464;11.926;2022-11-20T13:23:27;3.97;;;2.70;;
4521;SDS011;2273;48.464;11.926;2022-11-20T13:26:03;3.20;;;2.60;;
4521;SDS011;2273;48.464;11.926;2022-11-20T13:28:39;3.50;;;2.77;;
4521;SDS011;2273;48.464;11.926;2022-11-20T13:31:09;4.20;;;2.40;;
4521;SDS011;2273;48.464;11.926;2022-11-20T13:33:53;2.67;;;2.33;;
4521;SDS011;2273;48.464;11.926;2022-11-20T13:36:21;6.40;;;2.50;;
4521;SDS011;2273;48.464;11.926;2022-11-20T13:38:51;3.47;;;2.60;;
4521;SDS011;2273;48.464;11.926;2022-11-20T13:41:25;5.00;;;2.60;;
4521;SDS011;2273;48.464;11.926;2022-11-20T13:43:58;3.90;;;2.57;;
4521;SDS011;2273;48.464;11.926;2022-11-20T13:46:34;3.00;;;2.53;;
4521;SDS011;2273;48.464;11.926;2022-11-20T13:49:08;3.90;;;2.60;;
4521;SDS011;2273;48.464;11.926;2022-11-20T13:51:42;9.83;;;5.10;;
4521;SDS011;2273;48.464;11.926;2022-11-20T13:54:26;3.83;;;2.87;;
4521;SDS011;2273;48.464;11.926;2022-11-20T14:00:22;7.47;;;3.70;;
4521;SDS011;2273;48.464;11.926;2022-11-20T14:02:57;4.67;;;3.47;;
4521;SDS011;2273;48.464;11.926;2022-11-20T14:05:34;5.97;;;4.10;;
4521;SDS011;2273;48.464;11.926;2022-11-20T14:08:02;8.93;;;3.93;;
4521;SDS011;2273;48.464;11.926;2022-11-20T14:10:29;4.93;;;3.13;;
4521;SDS011;2273;48.464;11.926;2022-11-20T14:12:55;8.67;;;4.67;;
4521;SDS011;2273;48.464;11.926;2022-11-20T14:15:28;9.33;;;6.13;;
4521;SDS011;2273;48.464;11.926;2022-11-20T14:17:55;4.70;;;3.80;;
4521;SDS011;2273;48.464;11.926;2022-11-20T14:20:20;4.73;;;3.30;;
4521;SDS011;2273;48.464;11.926;2022-11-20T14:22:50;6.50;;;3.37;;
4521;SDS011;2273;48.464;11.926;2022-11-20T14:27:42;2.87;;;2.50;;
4521;SDS011;2273;48.464;11.926;2022-11-20T14:30:13;2.50;;;2.30;;
4521;SDS011;2273;48.464;11.926;2022-11-20T14:32:42;3.20;;;2.67;;
4521;SDS011;2273;48.464;11.926;2022-11-20T14:35:09;3.60;;;2.70;;
4521;SDS011;2273;48.464;11.926;2022-11-20T14:37:39;3.20;;;2.67;;
4521;SDS011;2273;48.464;11.926;2022-11-20T14:40:28;4.47;;;2.60;;
4521;SDS011;2273;48.464;11.926;2022-11-20T14:42:56;3.17;;;2.50;;
4521;SDS011;2273;48.464;11.926;2022-11-20T14:45:23;4.50;;;2.80;;
4521;SDS011;2273;48.464;11.926;2022-11-20T14:47:50;5.17;;;2.50;;
4521;SDS011;2273;48.464;11.926;2022-11-20T14:50:19;3.10;;;2.80;;
4521;SDS011;2273;48.464;11.926;2022-11-20T14:52:50;3.77;;;2.70;;
4521;SDS011;2273;48.464;11.926;2022-11-20T14:55:30;3.07;;;2.73;;
4521;SDS011;2273;48.464;11.926;2022-11-20T14:58:02;3.30;;;2.87;;
4521;SDS011;2273;48.464;11.926;2022-11-20T15:00:29;2.90;;;2.60;;
4521;SDS011;2273;48.464;11.926;2022-11-20T15:02:55;3.27;;;2.37;;
4521;SDS011;2273;48.464;11.926;2022-11-20T15:05:22;5.60;;;2.93;;
4521;SDS011;2273;48.464;11.926;2022-11-20T15:07:50;4.13;;;2.97;;
4521;SDS011;2273;48.464;11.926;2022-11-20T15:10:24;4.00;;;3.33;;
4521;SDS011;2273;48.464;11.926;2022-11-20T15:12:55;4.63;;;3.10;;
4521;SDS011;2273;48.464;11.926;2022-11-20T15:15:33;3.80;;;2.80;;
4521;SDS011;2273;48.464;11.926;2022-11-20T15:18:00;3.50;;;2.80;;
4521;SDS011;2273;48.464;11.926;2022-11-20T15:20:28;5.13;;;3.57;;
4521;SDS011;2273;48.464;11.926;2022-11-20T15:22:56;9.03;;;4.10;;
4521;SDS011;2273;48.464;11.926;2022-11-20T15:25:21;4.80;;;2.87;;
4521;SDS011;2273;48.464;11.926;2022-11-20T15:27:50;5.53;;;3.27;;
4521;SDS011;2273;48.464;11.926;2022-11-20T15:30:19;5.20;;;3.03;;
4521;SDS011;2273;48.464;11.926;2022-11-20T15:32:45;3.00;;;2.67;;
4521;SDS011;2273;48.464;11.926;2022-11-20T15:35:12;7.67;;;2.73;;
4521;SDS011;2273;48.464;11.926;2022-11-20T15:37:39;3.60;;;2.70;;
4521;SDS011;2273;48.464;11.926;2022-11-20T15:40:04;3.00;;;2.63;;
4521;SDS011;2273;48.464;11.926;2022-11-20T15:42:31;2.60;;;2.33;;
4521;SDS011;2273;48.464;11.926;2022-11-20T15:44:57;3.20;;;2.40;;
4521;SDS011;2273;48.464;11.926;2022-11-20T15:47:24;6.97;;;2.60;;
4521;SDS011;2273;48.464;11.926;2022-11-20T15:49:52;3.50;;;2.90;;
4521;SDS011;2273;48.464;11.926;2022-11-20T15:52:17;2.80;;;2.50;;
4521;SDS011;2273;48.464;11.926;2022-11-20T15:54:43;3.10;;;2.60;;
4521;SDS011;2273;48.464;11.926;2022-11-20T15:57:08;2.97;;;2.60;;
4521;SDS011;2273;48.464;11.926;2022-11-20T15:59:34;3.20;;;2.80;;
4521;SDS011;2273;48.464;11.926;2022-11-20T16:02:02;13.60;;;2.40;;
4521;SDS011;2273;48.464;11.926;2022-11-20T16:04:27;2.90;;;2.40;;
4521;SDS011;2273;48.464;11.926;2022-11-20T16:06:53;2.73;;;2.40;;
4521;SDS011;2273;48.464;11.926;2022-11-20T16:09:18;3.90;;;2.70;;
4521;SDS011;2273;48.464;11.926;2022-11-20T16:11:43;4.10;;;2.80;;
4521;SDS011;2273;48.464;11.926;2022-11-20T16:14:10;3.27;;;2.60;;
4521;SDS011;2273;48.464;11.926;2022-11-20T16:16:54;5.03;;;3.17;;
4521;SDS011;2273;48.464;11.926;2022-11-20T16:19:20;3.07;;;2.77;;
4521;SDS011;2273;48.464;11.926;2022-11-20T16:21:45;3.80;;;3.30;;
4521;SDS011;2273;48.464;11.926;2022-11-20T16:24:11;5.27;;;3.10;;
4521;SDS011;2273;48.464;11.926;2022-11-20T16:26:38;3.20;;;2.70;;
4521;SDS011;2273;48.464;11.926;2022-11-20T16:29:04;4.07;;;3.20;;